createdAt,value
2023-05-22T00:02:50.793Z,98066.56
2023-05-22T00:05:53.230Z,98053.72
2023-05-22T00:08:54.562Z,98059.31
2023-05-22T00:11:55.931Z,98046.97
2023-05-22T00:14:57.380Z,98042.72
2023-05-22T00:17:58.879Z,98042.91
2023-05-22T00:21:00.269Z,98041.09
2023-05-22T00:24:01.905Z,98039.19
2023-05-22T00:27:03.311Z,98036.19
2023-05-22T00:30:04.949Z,98029.75
2023-05-22T00:33:06.352Z,98033.88
2023-05-22T00:36:07.942Z,98025.53
2023-05-22T00:39:09.854Z,98031.41
2023-05-22T00:42:11.404Z,98028.50
2023-05-22T00:45:17.494Z,98032.94
2023-05-22T00:48:18.827Z,98026.50
2023-05-22T00:51:21.286Z,98030.47
2023-05-22T00:54:22.741Z,98033.09
2023-05-22T00:57:24.595Z,98027.16
2023-05-22T01:00:26.164Z,98034.88
2023-05-22T01:03:28.409Z,98029.13
2023-05-22T01:06:32.160Z,98028.47
2023-05-22T01:09:33.665Z,98037.50
2023-05-22T01:12:38.268Z,98039.19
2023-05-22T01:15:48.581Z,98037.53
2023-05-22T01:18:55.009Z,98033.41
2023-05-22T01:22:02.605Z,98037.38
2023-05-22T01:25:26.510Z,98038.19
2023-05-22T01:28:47.046Z,98038.34
2023-05-22T01:31:48.952Z,98044.75
2023-05-22T01:34:53.275Z,98036.22
2023-05-22T01:37:55.156Z,98042.78
2023-05-22T01:40:56.531Z,98032.75
2023-05-22T01:43:58.198Z,98034.56
2023-05-22T01:47:04.950Z,98035.06
2023-05-22T01:50:06.750Z,98029.81
2023-05-22T01:53:12.662Z,98035.22
2023-05-22T01:56:20.959Z,98030.63
2023-05-22T01:59:22.282Z,98035.38
2023-05-22T02:02:24.626Z,98037.81
2023-05-22T02:05:27.610Z,98041.34
2023-05-22T02:08:29.754Z,98032.31
2023-05-22T02:11:31.501Z,98039.22
2023-05-22T02:14:33.496Z,98036.41
2023-05-22T02:17:36.875Z,98031.94
2023-05-22T02:20:38.583Z,98032.44
2023-05-22T02:23:40.541Z,98026.53
2023-05-22T02:26:42.520Z,98028.59
2023-05-22T02:29:43.874Z,98034.50
2023-05-22T02:32:45.322Z,98025.66
2023-05-22T02:35:46.701Z,98023.25
2023-05-22T02:38:48.046Z,98029.66
2023-05-22T02:41:49.460Z,98019.16
2023-05-22T02:44:50.873Z,98018.31
2023-05-22T02:47:52.329Z,98015.59
2023-05-22T02:50:53.726Z,98020.50
2023-05-22T02:53:55.059Z,98020.81
2023-05-22T02:56:56.864Z,98016.00
2023-05-22T02:59:59.223Z,98018.13
2023-05-22T03:03:00.699Z,98018.44
2023-05-22T03:06:04.123Z,98017.97
2023-05-22T03:09:05.679Z,98020.34
2023-05-22T03:12:07.245Z,98025.81
2023-05-22T03:15:08.924Z,98024.44
2023-05-22T03:18:10.372Z,98026.88
2023-05-22T03:21:11.723Z,98026.63
2023-05-22T03:24:13.125Z,98027.56
2023-05-22T03:27:16.186Z,98038.28
2023-05-22T03:30:17.604Z,98024.75
2023-05-22T03:33:19.055Z,98038.38
2023-05-22T03:36:21.298Z,98034.94
2023-05-22T03:39:22.669Z,98038.81
2023-05-22T03:42:24.045Z,98032.81
2023-05-22T03:45:25.442Z,98026.00
2023-05-22T03:48:26.795Z,98025.19
2023-05-22T03:51:28.092Z,98028.25
2023-05-22T03:54:29.422Z,98034.69
2023-05-22T03:57:30.876Z,98032.81
2023-05-22T04:00:33.334Z,98026.28
2023-05-22T04:03:34.736Z,98029.22
2023-05-22T04:06:42.934Z,98025.88
2023-05-22T04:09:44.348Z,98030.13
2023-05-22T04:12:45.702Z,98035.78
2023-05-22T04:15:47.139Z,98038.69
2023-05-22T04:18:48.589Z,98040.69
2023-05-22T04:21:50.016Z,98040.84
2023-05-22T04:24:51.376Z,98044.75
2023-05-22T04:27:52.807Z,98050.19
2023-05-22T04:30:54.620Z,98047.72
2023-05-22T04:33:56.192Z,98046.53
2023-05-22T04:36:58.048Z,98053.13
2023-05-22T04:40:06.252Z,98058.19
2023-05-22T04:43:07.663Z,98054.25
2023-05-22T04:46:09.084Z,98055.56
2023-05-22T04:49:10.447Z,98055.91
2023-05-22T04:52:12.078Z,98047.38
2023-05-22T04:55:13.802Z,98055.81
2023-05-22T04:58:15.485Z,98059.63
2023-05-22T05:01:16.919Z,98051.38
2023-05-22T05:04:18.349Z,98058.34
2023-05-22T05:07:19.800Z,98056.03
2023-05-22T05:10:21.245Z,98055.06
2023-05-22T05:13:22.641Z,98058.69
2023-05-22T05:16:25.193Z,98053.75
2023-05-22T05:19:26.642Z,98055.63
2023-05-22T05:22:28.006Z,98055.16
2023-05-22T05:25:29.376Z,98050.56
2023-05-22T05:28:30.815Z,98052.72
2023-05-22T05:31:32.948Z,98051.91
2023-05-22T05:34:34.430Z,98056.38
2023-05-22T05:37:35.809Z,98056.38
2023-05-22T05:40:37.382Z,98055.91
2023-05-22T05:43:38.857Z,98054.25
2023-05-22T05:46:40.218Z,98060.66
2023-05-22T05:49:41.732Z,98053.34
2023-05-22T05:52:43.065Z,98059.91
2023-05-22T05:55:44.452Z,98062.22
2023-05-22T05:58:45.858Z,98057.13
2023-05-22T06:01:48.216Z,98055.66
2023-05-22T06:04:49.652Z,98061.78
2023-05-22T06:07:51.896Z,98062.38
2023-05-22T06:10:53.340Z,98056.38
2023-05-22T06:13:55.479Z,98059.97
2023-05-22T06:16:57.343Z,98060.66
2023-05-22T06:19:58.924Z,98055.28
2023-05-22T06:23:00.302Z,98055.44
2023-05-22T06:26:01.700Z,98062.78
2023-05-22T06:29:03.116Z,98061.13
2023-05-22T06:32:04.659Z,98052.75
2023-05-22T06:35:12.544Z,98057.06
2023-05-22T06:38:13.910Z,98060.69
2023-05-22T06:41:15.234Z,98045.41
2023-05-22T06:44:17.129Z,98043.28
2023-05-22T06:47:18.807Z,98051.19
2023-05-22T06:50:20.804Z,98049.03
2023-05-22T06:53:23.833Z,98050.81
2023-05-22T06:56:25.420Z,98046.22
2023-05-22T06:59:26.837Z,98049.44
2023-05-22T07:02:28.292Z,98053.31
2023-05-22T07:05:29.754Z,98056.47
2023-05-22T07:08:31.274Z,98053.94
2023-05-22T07:11:32.809Z,98055.47
2023-05-22T07:14:34.125Z,98057.22
2023-05-22T07:17:35.500Z,98053.50
2023-05-22T07:20:39.941Z,98058.63
2023-05-22T07:23:41.527Z,98056.97
2023-05-22T07:26:49.443Z,98060.91
2023-05-22T07:29:51.025Z,98056.81
2023-05-22T07:32:52.418Z,98058.84
2023-05-22T07:35:53.797Z,98062.53
2023-05-22T07:38:55.164Z,98062.00
2023-05-22T07:41:57.529Z,98057.84
2023-05-22T07:45:00.919Z,98057.72
2023-05-22T07:48:04.249Z,98057.56
2023-05-22T07:51:05.947Z,98057.19
2023-05-22T07:54:08.038Z,98055.91
2023-05-22T07:57:09.542Z,98057.75
2023-05-22T08:00:13.564Z,98059.78
2023-05-22T08:03:17.560Z,98053.13
2023-05-22T08:06:19.617Z,98056.47
2023-05-22T08:09:21.612Z,98056.63
2023-05-22T08:12:23.024Z,98057.41
2023-05-22T08:15:24.418Z,98056.22
2023-05-22T08:18:28.067Z,98052.84
2023-05-22T08:21:29.432Z,98050.59
2023-05-22T08:24:31.360Z,98049.13
2023-05-22T08:27:32.768Z,98054.16
2023-05-22T08:30:34.156Z,98051.03
2023-05-22T08:33:35.718Z,98047.56
2023-05-22T08:36:37.366Z,98051.50
2023-05-22T08:39:38.736Z,98048.13
2023-05-22T08:42:40.172Z,98050.53
2023-05-22T08:45:43.757Z,98045.59
2023-05-22T08:48:45.953Z,98046.94
2023-05-22T08:51:48.136Z,98043.94
2023-05-22T08:54:53.079Z,98042.06
2023-05-22T08:57:56.048Z,98045.81
2023-05-22T09:00:58.276Z,98041.03
2023-05-22T09:04:00.880Z,98041.00
2023-05-22T09:07:05.979Z,98038.25
2023-05-22T09:10:07.821Z,98033.13
2023-05-22T09:13:09.826Z,98024.88
2023-05-22T09:16:12.619Z,98025.97
2023-05-22T09:19:14.941Z,98022.63
2023-05-22T09:22:16.773Z,98029.56
2023-05-22T09:25:19.339Z,98019.03
2023-05-22T09:28:20.703Z,98017.53
2023-05-22T09:31:22.075Z,98021.66
2023-05-22T09:34:27.808Z,98012.09
2023-05-22T09:37:32.580Z,98016.00
2023-05-22T09:40:35.262Z,98014.75
2023-05-22T09:43:36.699Z,98013.38
2023-05-22T09:46:45.600Z,98001.31
2023-05-22T09:49:47.121Z,98005.97
2023-05-22T09:52:50.859Z,97996.53
2023-05-22T09:55:53.032Z,98007.50
2023-05-22T09:58:55.052Z,98007.72
2023-05-22T10:01:57.241Z,97998.56
2023-05-22T10:05:00.577Z,98001.09
2023-05-22T10:08:09.051Z,97992.88
2023-05-22T10:11:11.293Z,97992.53
2023-05-22T10:14:12.681Z,97991.09
2023-05-22T10:17:16.875Z,97990.09
2023-05-22T10:20:18.896Z,97990.09
2023-05-22T10:23:22.471Z,97986.41
2023-05-22T10:26:24.956Z,97984.34
2023-05-22T10:29:33.411Z,97982.44
2023-05-22T10:32:43.426Z,97981.50
2023-05-22T10:35:52.226Z,97978.66
2023-05-22T10:38:56.401Z,97971.50
2023-05-22T10:41:57.813Z,97979.47
2023-05-22T10:45:03.025Z,97971.31
2023-05-22T10:48:11.772Z,97979.03
2023-05-22T10:51:14.409Z,97973.53
2023-05-22T10:54:16.041Z,97977.22
2023-05-22T10:57:17.758Z,97980.72
2023-05-22T11:00:21.136Z,97978.06
2023-05-22T11:03:22.708Z,97973.56
2023-05-22T11:06:40.966Z,97976.19
2023-05-22T11:09:48.766Z,97969.91
2023-05-22T11:13:02.219Z,97966.72
2023-05-22T11:16:05.234Z,97966.22
2023-05-22T11:19:22.902Z,97961.88
2023-05-22T11:22:45.575Z,97961.41
2023-05-22T11:25:49.349Z,97963.50
2023-05-22T11:28:51.854Z,97964.28
2023-05-22T11:31:53.428Z,97949.78
2023-05-22T11:34:56.842Z,97957.41
2023-05-22T11:37:58.825Z,97957.75
2023-05-22T11:41:00.266Z,97961.78
2023-05-22T11:44:02.707Z,97955.31
2023-05-22T11:47:04.186Z,97949.47
2023-05-22T11:50:08.462Z,97953.25
2023-05-22T11:53:10.205Z,97949.91
2023-05-22T11:56:11.631Z,97944.75
2023-05-22T11:59:12.967Z,97943.28
2023-05-22T12:02:15.680Z,97940.72
2023-05-22T12:05:17.073Z,97932.19
2023-05-22T12:08:18.517Z,97930.88
2023-05-22T12:11:19.869Z,97929.44
2023-05-22T12:14:25.819Z,97924.84
2023-05-22T12:17:28.413Z,97923.59
2023-05-22T12:20:30.970Z,97917.91
2023-05-22T12:23:32.416Z,97923.69
2023-05-22T12:26:33.806Z,97920.72
2023-05-22T12:29:35.146Z,97916.50
2023-05-22T12:32:36.611Z,97916.50
2023-05-22T12:35:38.525Z,97920.19
2023-05-22T12:38:40.683Z,97929.59
2023-05-22T12:41:42.092Z,97916.50
2023-05-22T12:44:45.258Z,97912.84
2023-05-22T12:47:46.969Z,97908.44
2023-05-22T12:50:48.825Z,97913.13
2023-05-22T12:53:50.177Z,97906.50
2023-05-22T12:56:51.529Z,97904.59
2023-05-22T12:59:52.847Z,97905.09
2023-05-22T13:02:54.551Z,97901.63
2023-05-22T13:05:56.081Z,97905.44
2023-05-22T13:08:57.602Z,97895.66
2023-05-22T13:11:59.984Z,97893.03
2023-05-22T13:15:01.720Z,97898.75
2023-05-22T13:18:03.173Z,97897.59
2023-05-22T13:21:04.682Z,97889.56
2023-05-22T13:24:06.090Z,97893.94
2023-05-22T13:27:07.582Z,97887.06
2023-05-22T13:30:09.150Z,97887.09
2023-05-22T13:33:10.892Z,97885.00
2023-05-22T13:36:12.651Z,97882.25
2023-05-22T13:39:14.034Z,97884.78
2023-05-22T13:42:15.561Z,97888.81
2023-05-22T13:45:16.910Z,97883.31
2023-05-22T13:48:18.406Z,97889.66
2023-05-22T13:51:19.731Z,97886.50
2023-05-22T13:54:21.146Z,97885.03
2023-05-22T13:57:22.583Z,97884.75
2023-05-22T14:00:24.164Z,97880.69
2023-05-22T14:03:25.617Z,97880.00
2023-05-22T14:06:27.591Z,97872.69
2023-05-22T14:09:29.700Z,97879.41
2023-05-22T14:12:31.144Z,97876.97
2023-05-22T14:15:32.462Z,97874.66
2023-05-22T14:18:33.920Z,97878.22
2023-05-22T14:21:35.263Z,97868.63
2023-05-22T14:24:36.761Z,97871.75
2023-05-22T14:27:38.106Z,97866.72
2023-05-22T14:30:39.878Z,97872.47
2023-05-22T14:33:41.431Z,97868.88
2023-05-22T14:36:43.434Z,97859.19
2023-05-22T14:39:44.876Z,97859.88
2023-05-22T14:42:46.300Z,97864.13
2023-05-22T14:45:47.716Z,97865.38
2023-05-22T14:48:49.069Z,97869.06
2023-05-22T14:51:50.453Z,97870.78
2023-05-22T14:54:51.951Z,97868.06
2023-05-22T14:57:53.664Z,97859.81
2023-05-22T15:00:55.170Z,97865.34
2023-05-22T15:03:56.520Z,97857.91
2023-05-22T15:06:57.865Z,97862.19
2023-05-22T15:09:59.535Z,97857.66
2023-05-22T15:13:02.129Z,97853.88
2023-05-22T15:16:03.645Z,97845.28
2023-05-22T15:19:05.224Z,97845.00
2023-05-22T15:22:19.593Z,97834.47
2023-05-22T15:25:21.426Z,97833.44
2023-05-22T15:28:22.843Z,97825.88
2023-05-22T15:31:24.228Z,97834.53
2023-05-22T15:34:25.610Z,97824.78
2023-05-22T15:37:27.460Z,97814.88
2023-05-22T15:40:29.047Z,97808.63
2023-05-22T15:43:30.845Z,97801.41
2023-05-22T15:46:32.278Z,97813.56
2023-05-22T15:49:33.736Z,97804.59
2023-05-22T15:52:35.502Z,97813.56
2023-05-22T15:55:36.932Z,97818.03
2023-05-22T15:58:38.339Z,97817.75
2023-05-22T16:01:39.855Z,97819.97
2023-05-22T16:04:41.312Z,97819.72
2023-05-22T16:07:42.825Z,97823.31
2023-05-22T16:10:46.367Z,97822.16
2023-05-22T16:13:47.903Z,97822.97
2023-05-22T16:16:49.258Z,97823.72
2023-05-22T16:19:51.336Z,97815.50
2023-05-22T16:22:52.680Z,97823.44
2023-05-22T16:25:54.106Z,97829.22
2023-05-22T16:28:55.429Z,97824.75
2023-05-22T16:31:57.056Z,97828.09
2023-05-22T16:34:58.551Z,97823.44
2023-05-22T16:37:59.996Z,97823.88
2023-05-22T16:41:01.393Z,97818.59
2023-05-22T16:44:03.005Z,97825.56
2023-05-22T16:47:04.513Z,97823.66
2023-05-22T16:50:06.346Z,97828.69
2023-05-22T16:53:07.775Z,97821.00
2023-05-22T16:56:09.212Z,97823.38
2023-05-22T16:59:10.571Z,97824.28
2023-05-22T17:02:12.157Z,97826.94
2023-05-22T17:05:13.569Z,97823.97
2023-05-22T17:08:14.997Z,97827.94
2023-05-22T17:11:16.374Z,97821.84
2023-05-22T17:14:17.721Z,97819.97
2023-05-22T17:17:19.079Z,97817.00
2023-05-22T17:20:22.066Z,97820.88
2023-05-22T17:23:23.734Z,97822.78
2023-05-22T17:26:25.189Z,97824.47
2023-05-22T17:29:28.121Z,97823.97
2023-05-22T17:32:29.732Z,97815.97
2023-05-22T17:35:31.225Z,97828.50
2023-05-22T17:38:32.631Z,97817.50
2023-05-22T17:41:33.997Z,97820.59
2023-05-22T17:44:36.075Z,97822.03
2023-05-22T17:47:37.479Z,97813.78
2023-05-22T17:50:39.109Z,97819.47
2023-05-22T17:53:40.800Z,97826.56
2023-05-22T17:56:42.783Z,97826.47
2023-05-22T17:59:44.229Z,97824.91
2023-05-22T18:02:47.711Z,97820.16
2023-05-22T18:05:49.502Z,97823.28
2023-05-22T18:08:50.919Z,97820.59
2023-05-22T18:11:52.579Z,97821.78
2023-05-22T18:14:54.030Z,97819.09
2023-05-22T18:17:55.419Z,97823.72
2023-05-22T18:20:57.790Z,97826.84
2023-05-22T18:23:59.119Z,97827.28
2023-05-22T18:27:00.607Z,97830.72
2023-05-22T18:30:02.743Z,97832.84
2023-05-22T18:33:04.447Z,97836.16
2023-05-22T18:36:05.809Z,97836.63
2023-05-22T18:39:07.753Z,97847.09
2023-05-22T18:42:09.149Z,97847.56
2023-05-22T18:45:11.912Z,97848.41
2023-05-22T18:48:13.400Z,97857.56
2023-05-22T18:51:16.534Z,97853.00
2023-05-22T18:54:17.900Z,97850.72
2023-05-22T18:57:19.257Z,97858.47
2023-05-22T19:00:20.750Z,97868.34
2023-05-22T19:03:24.776Z,97875.50
2023-05-22T19:06:29.268Z,97882.16
2023-05-22T19:09:30.623Z,97875.59
2023-05-22T19:12:32.011Z,97881.00
2023-05-22T19:15:37.554Z,97882.44
2023-05-22T19:18:38.977Z,97888.91
2023-05-22T19:21:42.918Z,97889.22
2023-05-22T19:24:44.316Z,97902.44
2023-05-22T19:27:45.853Z,97907.81
2023-05-22T19:30:47.282Z,97913.28
2023-05-22T19:33:48.673Z,97914.91
2023-05-22T19:36:51.736Z,97918.16
2023-05-22T19:39:53.805Z,97913.25
2023-05-22T19:42:55.214Z,97914.69
2023-05-22T19:45:59.605Z,97915.19
2023-05-22T19:49:01.038Z,97919.66
2023-05-22T19:52:03.417Z,97918.16
2023-05-22T19:55:05.203Z,97916.78
2023-05-22T19:58:06.531Z,97914.53
2023-05-22T20:01:07.906Z,97919.50
2023-05-22T20:04:09.281Z,97921.31
2023-05-22T20:07:10.682Z,97920.91
2023-05-22T20:10:12.120Z,97919.25
2023-05-22T20:13:13.505Z,97925.59
2023-05-22T20:16:17.578Z,97923.56
2023-05-22T20:19:19.087Z,97924.19
2023-05-22T20:22:20.545Z,97926.44
2023-05-22T20:25:21.984Z,97923.16
2023-05-22T20:28:23.403Z,97919.09
2023-05-22T20:31:24.796Z,97923.56
2023-05-22T20:34:26.650Z,97926.22
2023-05-22T20:37:29.578Z,97937.03
2023-05-22T20:40:32.189Z,97929.06
2023-05-22T20:43:34.526Z,97936.03
2023-05-22T20:46:35.955Z,97944.00
2023-05-22T20:49:38.287Z,97943.78
2023-05-22T20:52:39.668Z,97956.41
2023-05-22T20:55:41.257Z,97957.22
2023-05-22T20:58:42.925Z,97960.09
2023-05-22T21:01:45.602Z,97959.47
2023-05-22T21:04:47.065Z,97955.34
2023-05-22T21:07:48.445Z,97959.59
2023-05-22T21:10:49.759Z,97955.91
2023-05-22T21:13:51.121Z,97959.00
2023-05-22T21:16:52.698Z,97961.78
2023-05-22T21:19:54.129Z,97957.25
2023-05-22T21:22:55.536Z,97950.31
2023-05-22T21:25:56.856Z,97947.44
2023-05-22T21:28:58.341Z,97952.84
2023-05-22T21:31:59.828Z,97943.59
2023-05-22T21:35:01.330Z,97936.72
2023-05-22T21:38:02.829Z,97934.44
2023-05-22T21:41:04.321Z,97940.91
2023-05-22T21:44:05.714Z,97934.34
2023-05-22T21:47:07.117Z,97933.72
2023-05-22T21:50:08.655Z,97933.44
2023-05-22T21:53:09.991Z,97934.00
2023-05-22T21:56:11.330Z,97927.59
2023-05-22T21:59:12.745Z,97937.47
2023-05-22T22:02:14.361Z,97935.00
2023-05-22T22:05:18.473Z,97946.00
2023-05-22T22:08:19.849Z,97934.44
2023-05-22T22:11:21.320Z,97936.03
2023-05-22T22:14:23.242Z,97921.06
2023-05-22T22:17:25.491Z,97922.63
2023-05-22T22:20:42.674Z,97929.72
2023-05-22T22:23:46.070Z,97938.53
2023-05-22T22:26:49.124Z,97931.53
2023-05-22T22:29:50.498Z,97944.63
2023-05-22T22:32:52.139Z,97942.53
2023-05-22T22:35:53.795Z,97944.78
2023-05-22T22:38:55.112Z,97945.72
2023-05-22T22:42:01.330Z,97949.94
2023-05-22T22:45:02.726Z,97944.97
2023-05-22T22:48:04.089Z,97941.63
2023-05-22T22:51:06.029Z,97947.53
2023-05-22T22:54:07.371Z,97950.81
2023-05-22T22:57:08.826Z,97955.09
2023-05-22T23:00:13.085Z,97951.38
2023-05-22T23:03:14.477Z,97959.13
2023-05-22T23:06:18.163Z,97966.56
2023-05-22T23:09:20.162Z,97964.16
2023-05-22T23:12:21.524Z,97971.13
2023-05-22T23:15:22.973Z,97967.38
2023-05-22T23:18:24.379Z,97970.88
2023-05-22T23:21:26.327Z,97979.00
2023-05-22T23:24:27.643Z,97982.47
2023-05-22T23:27:28.990Z,97980.66
2023-05-22T23:30:30.335Z,97984.16
2023-05-22T23:33:31.672Z,97976.97
2023-05-22T23:36:33.473Z,97979.94
2023-05-22T23:39:34.916Z,97979.13
2023-05-22T23:42:36.334Z,97985.16
2023-05-22T23:45:37.730Z,97989.00
2023-05-22T23:48:39.501Z,97986.34
2023-05-22T23:51:40.870Z,97984.22
2023-05-22T23:54:42.219Z,97985.72
2023-05-22T23:57:43.593Z,97983.72
